Tribbey, Kentucky
Current Conditions -  °F | °C
As of 8:06 AM on Tuesday 21 Oct 2014 (Local Time) from KJKL Reporting Station
Haze Haze  
Wind Chill: 49°   Ceiling: 600
Heat Index: 49°   Visibility: 6mi
Dew Point: 47°   Wind: 3mph
Humidity: 93%   Direction: NA
Pressure: 29.96"   Gusts: NA
Location:  37.3318°N, 83.1697°W
Report Text: KJKL 211206Z AUTO VRB03KT 6SM BR BKN006 09/08 A2996 RMK AO2 T00940083
Loading
Personal Weather Stations






























Interactive Weather Map
Tropical Storm Tracking
New forecast layout! Learn more

10-Day Weather Forecast

Advertisements
Track Severe Weather on mobile